WZZ94YZ EYVI-EETN
Flight info
| Callsign | WZZ94YZ |
|---|---|
| Flight time | 0h 52m |
| Altitude | 35000 |
| Route | TAGOL DCT LUNIT DCT TUSAS DCT DOLAT DCT KEMET |
| Aircraft | A21N/M-SDE3FGHIRWY/LB1 |
Departure
| Time | 2026-05-08 08:57 |
|---|---|
| Airport | Vilnius International Airport (EYVI) |
Arrival
| Time | 2026-05-08 09:49 |
|---|---|
| Airport | Lennart Meri Tallinn Airport (EETN) |
| Time | Latitude | Longitude | Altitude | Speed | Heading |
|---|---|---|---|---|---|
| 2026-05-08 08:34 | 54.64532 | 25.28184 | 627 ft | 0 kts | 270° |
| 2026-05-08 08:46 | 54.64532 | 25.28183 | 627 ft | 0 kts | 270° |
| 2026-05-08 08:46 | 54.64532 | 25.28203 | 627 ft | 2 kts | 272° |
| 2026-05-08 08:47 | 54.64532 | 25.28230 | 628 ft | 2 kts | 271° |
| 2026-05-08 08:47 | 54.64527 | 25.28254 | 628 ft | 2 kts | 305° |
| 2026-05-08 08:47 | 54.64517 | 25.28272 | 629 ft | 2 kts | 330° |
| 2026-05-08 08:47 | 54.64504 | 25.28280 | 629 ft | 1 kts | 354° |
| 2026-05-08 08:48 | 54.64497 | 25.28280 | 629 ft | 1 kts | 3° |
| 2026-05-08 08:48 | 54.64495 | 25.28280 | 629 ft | 0 kts | 1° |
| 2026-05-08 08:50 | 54.64496 | 25.28280 | 629 ft | 1 kts | 1° |
| 2026-05-08 08:50 | 54.64534 | 25.28286 | 629 ft | 6 kts | 17° |
| 2026-05-08 08:50 | 54.64558 | 25.28339 | 630 ft | 5 kts | 72° |
| 2026-05-08 08:50 | 54.64566 | 25.28392 | 631 ft | 5 kts | 75° |
| 2026-05-08 08:51 | 54.64576 | 25.28466 | 633 ft | 7 kts | 76° |
| 2026-05-08 08:51 | 54.64574 | 25.28538 | 634 ft | 4 kts | 126° |
| 2026-05-08 08:51 | 54.64547 | 25.28577 | 635 ft | 7 kts | 142° |
| 2026-05-08 08:51 | 54.64484 | 25.28623 | 636 ft | 13 kts | 170° |
| 2026-05-08 08:52 | 54.64373 | 25.28653 | 636 ft | 19 kts | 172° |
| 2026-05-08 08:52 | 54.64221 | 25.28684 | 635 ft | 24 kts | 174° |
| 2026-05-08 08:52 | 54.64093 | 25.28704 | 631 ft | 10 kts | 174° |
| 2026-05-08 08:52 | 54.64001 | 25.28679 | 627 ft | 18 kts | 201° |
| 2026-05-08 08:53 | 54.63846 | 25.28571 | 619 ft | 28 kts | 202° |
| 2026-05-08 08:53 | 54.63653 | 25.28437 | 609 ft | 30 kts | 202° |
| 2026-05-08 08:53 | 54.63454 | 25.28299 | 601 ft | 31 kts | 201° |
| 2026-05-08 08:53 | 54.63251 | 25.28158 | 597 ft | 31 kts | 202° |
| 2026-05-08 08:54 | 54.63052 | 25.28019 | 595 ft | 30 kts | 202° |
| 2026-05-08 08:54 | 54.62859 | 25.27885 | 593 ft | 29 kts | 201° |
| 2026-05-08 08:54 | 54.62682 | 25.27762 | 593 ft | 23 kts | 202° |
| 2026-05-08 08:54 | 54.62558 | 25.27677 | 596 ft | 10 kts | 199° |
| 2026-05-08 08:55 | 54.62487 | 25.27700 | 595 ft | 12 kts | 143° |
| 2026-05-08 08:55 | 54.62412 | 25.27804 | 591 ft | 14 kts | 134° |
| 2026-05-08 08:55 | 54.62394 | 25.27869 | 589 ft | 2 kts | 52° |
| 2026-05-08 08:55 | 54.62400 | 25.27875 | 589 ft | 0 kts | 22° |
| 2026-05-08 08:56 | 54.62450 | 25.27911 | 588 ft | 33 kts | 22° |
| 2026-05-08 08:56 | 54.62928 | 25.28241 | 589 ft | 110 kts | 22° |
| 2026-05-08 08:57 | 54.63821 | 25.28844 | 776 ft | 153 kts | 22° |
| 2026-05-08 08:57 | 54.64777 | 25.29473 | 1595 ft | 148 kts | 24° |
| 2026-05-08 08:57 | 54.65684 | 25.30083 | 2450 ft | 142 kts | 25° |
| 2026-05-08 08:57 | 54.66571 | 25.30686 | 3163 ft | 137 kts | 27° |
| 2026-05-08 08:58 | 54.67453 | 25.31299 | 3738 ft | 140 kts | 27° |
| 2026-05-08 08:58 | 54.68389 | 25.31963 | 4164 ft | 154 kts | 27° |
| 2026-05-08 08:58 | 54.69416 | 25.32691 | 4567 ft | 170 kts | 26° |
| 2026-05-08 08:58 | 54.70558 | 25.33496 | 4978 ft | 186 kts | 25° |
| 2026-05-08 08:59 | 54.71819 | 25.34378 | 5400 ft | 203 kts | 24° |
| 2026-05-08 08:59 | 54.73166 | 25.35319 | 5759 ft | 224 kts | 24° |
| 2026-05-08 08:59 | 54.74687 | 25.36373 | 6236 ft | 241 kts | 23° |
| 2026-05-08 08:59 | 54.76254 | 25.37458 | 6993 ft | 246 kts | 22° |
| 2026-05-08 09:00 | 54.77835 | 25.38550 | 7787 ft | 249 kts | 23° |
| 2026-05-08 09:00 | 54.79431 | 25.39627 | 8553 ft | 253 kts | 19° |
| 2026-05-08 09:00 | 54.81188 | 25.40077 | 9292 ft | 259 kts | 360° |
| 2026-05-08 09:00 | 54.83009 | 25.39601 | 9785 ft | 275 kts | 349° |
| 2026-05-08 09:01 | 54.84898 | 25.38844 | 10282 ft | 287 kts | 348° |
| 2026-05-08 09:01 | 54.86879 | 25.38017 | 10789 ft | 299 kts | 348° |
| 2026-05-08 09:01 | 54.88909 | 25.37174 | 11398 ft | 306 kts | 348° |
| 2026-05-08 09:01 | 54.90989 | 25.36317 | 12086 ft | 310 kts | 348° |
| 2026-05-08 09:02 | 54.93084 | 25.35461 | 12760 ft | 314 kts | 348° |
| 2026-05-08 09:02 | 54.95222 | 25.34590 | 13399 ft | 318 kts | 348° |
| 2026-05-08 09:02 | 54.97391 | 25.33706 | 14028 ft | 322 kts | 348° |
| 2026-05-08 09:02 | 54.99558 | 25.32824 | 14648 ft | 326 kts | 347° |
| 2026-05-08 09:03 | 55.01780 | 25.31917 | 15262 ft | 330 kts | 347° |
| 2026-05-08 09:03 | 55.04026 | 25.31002 | 15823 ft | 334 kts | 346° |
| 2026-05-08 09:03 | 55.06294 | 25.30079 | 16380 ft | 338 kts | 346° |
| 2026-05-08 09:03 | 55.08591 | 25.29143 | 16928 ft | 342 kts | 346° |
| 2026-05-08 09:04 | 55.10897 | 25.28199 | 17464 ft | 345 kts | 345° |
| 2026-05-08 09:04 | 55.13253 | 25.27235 | 17977 ft | 349 kts | 345° |
| 2026-05-08 09:04 | 55.15624 | 25.26262 | 18493 ft | 353 kts | 345° |
| 2026-05-08 09:04 | 55.18008 | 25.25283 | 19016 ft | 356 kts | 345° |
| 2026-05-08 09:05 | 55.20438 | 25.24284 | 19538 ft | 359 kts | 345° |
| 2026-05-08 09:05 | 55.22854 | 25.23292 | 20055 ft | 363 kts | 345° |
| 2026-05-08 09:05 | 55.25320 | 25.22278 | 20608 ft | 366 kts | 345° |
| 2026-05-08 09:05 | 55.27814 | 25.21257 | 21136 ft | 369 kts | 345° |
| 2026-05-08 09:06 | 55.30322 | 25.20537 | 21592 ft | 374 kts | 352° |
| 2026-05-08 09:06 | 55.32927 | 25.20357 | 22052 ft | 379 kts | 0° |
| 2026-05-08 09:06 | 55.35575 | 25.20605 | 22521 ft | 382 kts | 2° |
| 2026-05-08 09:06 | 55.38228 | 25.20969 | 22967 ft | 385 kts | 3° |
| 2026-05-08 09:07 | 55.40902 | 25.21337 | 23396 ft | 388 kts | 3° |
| 2026-05-08 09:07 | 55.43567 | 25.21686 | 23907 ft | 389 kts | 2° |
| 2026-05-08 09:07 | 55.46246 | 25.21979 | 24702 ft | 381 kts | 360° |
| 2026-05-08 09:07 | 55.48831 | 25.22000 | 25495 ft | 372 kts | 356° |
| 2026-05-08 09:08 | 55.51400 | 25.21818 | 26046 ft | 372 kts | 354° |
| 2026-05-08 09:08 | 55.54001 | 25.21576 | 26324 ft | 378 kts | 354° |
| 2026-05-08 09:08 | 55.56650 | 25.21321 | 26603 ft | 385 kts | 354° |
| 2026-05-08 09:08 | 55.59304 | 25.21070 | 26879 ft | 391 kts | 354° |
| 2026-05-08 09:09 | 55.62053 | 25.20817 | 27162 ft | 396 kts | 354° |
| 2026-05-08 09:09 | 55.64829 | 25.20568 | 27442 ft | 402 kts | 354° |
| 2026-05-08 09:09 | 55.67669 | 25.20315 | 27723 ft | 408 kts | 354° |
| 2026-05-08 09:09 | 55.70520 | 25.20062 | 28003 ft | 413 kts | 354° |
| 2026-05-08 09:10 | 55.73385 | 25.19809 | 28283 ft | 418 kts | 354° |
| 2026-05-08 09:10 | 55.76300 | 25.19548 | 28560 ft | 423 kts | 354° |
| 2026-05-08 09:10 | 55.79265 | 25.19285 | 28864 ft | 427 kts | 354° |
| 2026-05-08 09:10 | 55.82209 | 25.19023 | 29204 ft | 430 kts | 354° |
| 2026-05-08 09:11 | 55.85226 | 25.18756 | 29543 ft | 433 kts | 354° |
| 2026-05-08 09:11 | 55.88249 | 25.18485 | 29905 ft | 436 kts | 354° |
| 2026-05-08 09:11 | 55.91245 | 25.18216 | 30223 ft | 438 kts | 354° |
| 2026-05-08 09:11 | 55.94297 | 25.17941 | 30554 ft | 441 kts | 354° |
| 2026-05-08 09:12 | 55.97363 | 25.17665 | 30899 ft | 443 kts | 353° |
| 2026-05-08 09:12 | 56.00386 | 25.17394 | 31495 ft | 437 kts | 353° |
| 2026-05-08 09:12 | 56.03384 | 25.17126 | 32289 ft | 426 kts | 353° |
| 2026-05-08 09:12 | 56.06297 | 25.16864 | 33083 ft | 416 kts | 353° |
| 2026-05-08 09:13 | 56.09146 | 25.16607 | 33734 ft | 409 kts | 353° |
| 2026-05-08 09:13 | 56.11964 | 25.16346 | 34108 ft | 408 kts | 352° |
| 2026-05-08 09:13 | 56.14809 | 25.16079 | 34357 ft | 411 kts | 352° |
| 2026-05-08 09:13 | 56.17650 | 25.15868 | 34524 ft | 417 kts | 355° |
| 2026-05-08 09:14 | 56.20564 | 25.15898 | 34654 ft | 423 kts | 357° |
| 2026-05-08 09:14 | 56.23512 | 25.16022 | 34783 ft | 429 kts | 358° |
| 2026-05-08 09:14 | 56.26506 | 25.16171 | 34901 ft | 434 kts | 358° |
| 2026-05-08 09:14 | 56.29552 | 25.16318 | 35007 ft | 440 kts | 358° |
| 2026-05-08 09:15 | 56.35701 | 25.16601 | 35190 ft | 450 kts | 358° |
| 2026-05-08 09:15 | 56.38842 | 25.16740 | 35297 ft | 454 kts | 358° |
| 2026-05-08 09:15 | 56.42007 | 25.16876 | 35457 ft | 456 kts | 358° |
| 2026-05-08 09:16 | 56.45141 | 25.17012 | 35651 ft | 457 kts | 358° |
| 2026-05-08 09:16 | 56.48311 | 25.17036 | 35845 ft | 456 kts | 354° |
| 2026-05-08 09:16 | 56.51451 | 25.16778 | 36037 ft | 455 kts | 353° |
| 2026-05-08 09:16 | 56.54613 | 25.16413 | 36208 ft | 455 kts | 352° |
| 2026-05-08 09:17 | 56.57754 | 25.16024 | 36348 ft | 456 kts | 352° |
| 2026-05-08 09:17 | 56.60919 | 25.15630 | 36475 ft | 456 kts | 352° |
| 2026-05-08 09:17 | 56.64080 | 25.15241 | 36614 ft | 457 kts | 352° |
| 2026-05-08 09:17 | 56.67234 | 25.14857 | 36779 ft | 458 kts | 352° |
| 2026-05-08 09:18 | 56.70397 | 25.14476 | 36955 ft | 459 kts | 352° |
| 2026-05-08 09:18 | 56.73571 | 25.14094 | 37112 ft | 461 kts | 352° |
| 2026-05-08 09:18 | 56.79979 | 25.13327 | 37186 ft | 461 kts | 352° |
| 2026-05-08 09:19 | 56.86329 | 25.12566 | 37186 ft | 461 kts | 352° |
| 2026-05-08 09:19 | 56.92726 | 25.11796 | 37192 ft | 461 kts | 352° |
| 2026-05-08 09:20 | 56.99090 | 25.11025 | 37198 ft | 460 kts | 352° |
| 2026-05-08 09:20 | 57.05454 | 25.10249 | 37203 ft | 461 kts | 352° |
| 2026-05-08 09:21 | 57.11780 | 25.09477 | 37200 ft | 460 kts | 352° |
| 2026-05-08 09:23 | 57.33928 | 25.06759 | 37219 ft | 456 kts | 352° |
| 2026-05-08 09:23 | 57.40243 | 25.05975 | 37224 ft | 456 kts | 353° |
| 2026-05-08 09:24 | 57.46555 | 25.05191 | 36977 ft | 460 kts | 352° |
| 2026-05-08 09:24 | 57.49754 | 25.04792 | 36742 ft | 459 kts | 353° |
| 2026-05-08 09:24 | 57.52894 | 25.04402 | 36526 ft | 456 kts | 353° |
| 2026-05-08 09:24 | 57.56047 | 25.04011 | 36358 ft | 453 kts | 353° |
| 2026-05-08 09:25 | 57.59156 | 25.03625 | 36180 ft | 452 kts | 353° |
| 2026-05-08 09:25 | 57.62304 | 25.03230 | 35769 ft | 452 kts | 353° |
| 2026-05-08 09:25 | 57.65420 | 25.02839 | 35146 ft | 456 kts | 353° |
| 2026-05-08 09:25 | 57.68563 | 25.02442 | 34341 ft | 460 kts | 353° |
| 2026-05-08 09:26 | 57.71763 | 25.02043 | 33554 ft | 462 kts | 353° |
| 2026-05-08 09:26 | 57.74930 | 25.01649 | 32823 ft | 462 kts | 352° |
| 2026-05-08 09:26 | 57.78144 | 25.01246 | 32065 ft | 462 kts | 352° |
| 2026-05-08 09:26 | 57.81339 | 25.00844 | 31324 ft | 462 kts | 352° |
| 2026-05-08 09:27 | 57.84500 | 25.00446 | 30579 ft | 462 kts | 352° |
| 2026-05-08 09:27 | 57.87716 | 25.00036 | 29778 ft | 462 kts | 352° |
| 2026-05-08 09:27 | 57.90913 | 24.99624 | 29010 ft | 461 kts | 352° |
| 2026-05-08 09:27 | 57.94085 | 24.99221 | 28252 ft | 460 kts | 352° |
| 2026-05-08 09:28 | 57.97244 | 24.98801 | 27652 ft | 454 kts | 351° |
| 2026-05-08 09:28 | 58.00366 | 24.98091 | 27169 ft | 449 kts | 347° |
| 2026-05-08 09:28 | 58.03380 | 24.96990 | 26645 ft | 443 kts | 343° |
| 2026-05-08 09:28 | 58.06344 | 24.95525 | 26117 ft | 437 kts | 340° |
| 2026-05-08 09:29 | 58.09217 | 24.93960 | 25587 ft | 433 kts | 340° |
| 2026-05-08 09:29 | 58.12105 | 24.92354 | 25067 ft | 429 kts | 340° |
| 2026-05-08 09:29 | 58.14943 | 24.90772 | 24577 ft | 425 kts | 340° |
| 2026-05-08 09:29 | 58.17783 | 24.89193 | 24105 ft | 422 kts | 340° |
| 2026-05-08 09:30 | 58.20551 | 24.87659 | 23617 ft | 419 kts | 340° |
| 2026-05-08 09:30 | 58.23317 | 24.86126 | 23137 ft | 414 kts | 340° |
| 2026-05-08 09:30 | 58.26069 | 24.84604 | 22683 ft | 410 kts | 341° |
| 2026-05-08 09:30 | 58.28784 | 24.83098 | 22239 ft | 405 kts | 341° |
| 2026-05-08 09:31 | 58.31480 | 24.81599 | 21761 ft | 402 kts | 341° |
| 2026-05-08 09:31 | 58.34124 | 24.80127 | 21265 ft | 398 kts | 341° |
| 2026-05-08 09:31 | 58.36759 | 24.78658 | 20792 ft | 394 kts | 341° |
| 2026-05-08 09:31 | 58.39376 | 24.77199 | 20313 ft | 390 kts | 341° |
| 2026-05-08 09:32 | 58.41942 | 24.75766 | 19827 ft | 386 kts | 341° |
| 2026-05-08 09:32 | 58.44510 | 24.74330 | 19351 ft | 383 kts | 342° |
| 2026-05-08 09:32 | 58.47024 | 24.72921 | 18901 ft | 379 kts | 342° |
| 2026-05-08 09:32 | 58.49542 | 24.71508 | 18442 ft | 376 kts | 342° |
| 2026-05-08 09:33 | 58.52010 | 24.70124 | 17981 ft | 372 kts | 342° |
| 2026-05-08 09:33 | 58.54470 | 24.68739 | 17498 ft | 369 kts | 342° |
| 2026-05-08 09:33 | 58.56919 | 24.67359 | 16991 ft | 366 kts | 342° |
| 2026-05-08 09:33 | 58.59339 | 24.65994 | 16502 ft | 362 kts | 342° |
| 2026-05-08 09:34 | 58.61751 | 24.64630 | 16015 ft | 359 kts | 342° |
| 2026-05-08 09:34 | 58.64107 | 24.63295 | 15512 ft | 356 kts | 342° |
| 2026-05-08 09:34 | 58.66462 | 24.61960 | 15027 ft | 352 kts | 343° |
| 2026-05-08 09:34 | 58.68777 | 24.60646 | 14532 ft | 349 kts | 343° |
| 2026-05-08 09:35 | 58.71111 | 24.59390 | 14031 ft | 347 kts | 345° |
| 2026-05-08 09:35 | 58.73461 | 24.58427 | 13536 ft | 344 kts | 349° |
| 2026-05-08 09:35 | 58.75785 | 24.57747 | 13041 ft | 342 kts | 351° |
| 2026-05-08 09:35 | 58.78125 | 24.57149 | 12556 ft | 339 kts | 352° |
| 2026-05-08 09:36 | 58.80447 | 24.56566 | 12084 ft | 336 kts | 352° |
| 2026-05-08 09:36 | 58.82756 | 24.55985 | 11606 ft | 333 kts | 352° |
| 2026-05-08 09:36 | 58.85015 | 24.55413 | 11191 ft | 328 kts | 353° |
| 2026-05-08 09:36 | 58.87243 | 24.54845 | 11011 ft | 314 kts | 353° |
| 2026-05-08 09:37 | 58.89347 | 24.54308 | 10834 ft | 302 kts | 353° |
| 2026-05-08 09:37 | 58.91396 | 24.53785 | 10661 ft | 290 kts | 353° |
| 2026-05-08 09:37 | 58.93330 | 24.53289 | 10506 ft | 278 kts | 353° |
| 2026-05-08 09:37 | 58.95203 | 24.52807 | 10360 ft | 267 kts | 353° |
| 2026-05-08 09:38 | 58.97014 | 24.52340 | 10137 ft | 261 kts | 353° |
| 2026-05-08 09:38 | 58.98814 | 24.51873 | 9770 ft | 260 kts | 353° |
| 2026-05-08 09:38 | 59.00594 | 24.51412 | 9425 ft | 259 kts | 353° |
| 2026-05-08 09:38 | 59.02369 | 24.50952 | 9089 ft | 257 kts | 353° |
| 2026-05-08 09:39 | 59.04127 | 24.50498 | 8767 ft | 255 kts | 354° |
| 2026-05-08 09:39 | 59.05868 | 24.50049 | 8450 ft | 252 kts | 354° |
| 2026-05-08 09:39 | 59.07600 | 24.49602 | 8139 ft | 250 kts | 354° |
| 2026-05-08 09:39 | 59.09312 | 24.49161 | 7829 ft | 247 kts | 354° |
| 2026-05-08 09:40 | 59.10991 | 24.48727 | 7526 ft | 245 kts | 354° |
| 2026-05-08 09:40 | 59.12670 | 24.48293 | 7212 ft | 243 kts | 355° |
| 2026-05-08 09:40 | 59.14335 | 24.47860 | 6902 ft | 241 kts | 355° |
| 2026-05-08 09:40 | 59.15990 | 24.47431 | 6590 ft | 239 kts | 355° |
| 2026-05-08 09:41 | 59.17633 | 24.47004 | 6283 ft | 238 kts | 355° |
| 2026-05-08 09:41 | 59.19256 | 24.46583 | 5974 ft | 236 kts | 355° |
| 2026-05-08 09:41 | 59.20883 | 24.46160 | 5657 ft | 236 kts | 355° |
| 2026-05-08 09:41 | 59.22503 | 24.45739 | 5347 ft | 234 kts | 355° |
| 2026-05-08 09:42 | 59.24099 | 24.45322 | 5040 ft | 233 kts | 355° |
| 2026-05-08 09:42 | 59.25708 | 24.44899 | 4732 ft | 233 kts | 355° |
| 2026-05-08 09:42 | 59.27295 | 24.44484 | 4427 ft | 232 kts | 355° |
| 2026-05-08 09:42 | 59.28895 | 24.44064 | 4120 ft | 231 kts | 355° |
| 2026-05-08 09:43 | 59.30479 | 24.43648 | 3842 ft | 228 kts | 355° |
| 2026-05-08 09:43 | 59.32000 | 24.43246 | 3768 ft | 218 kts | 355° |
| 2026-05-08 09:43 | 59.33487 | 24.42987 | 3652 ft | 212 kts | 0° |
| 2026-05-08 09:43 | 59.34946 | 24.42947 | 3535 ft | 205 kts | 2° |
| 2026-05-08 09:44 | 59.36359 | 24.42938 | 3508 ft | 205 kts | 2° |
| 2026-05-08 09:44 | 59.37796 | 24.42933 | 3404 ft | 207 kts | 2° |
| 2026-05-08 09:44 | 59.39218 | 24.43261 | 3258 ft | 205 kts | 24° |
| 2026-05-08 09:44 | 59.40299 | 24.44994 | 3133 ft | 207 kts | 55° |
| 2026-05-08 09:45 | 59.41014 | 24.47445 | 3011 ft | 203 kts | 58° |
| 2026-05-08 09:45 | 59.41558 | 24.49911 | 2852 ft | 199 kts | 80° |
| 2026-05-08 09:45 | 59.41570 | 24.52563 | 2792 ft | 188 kts | 89° |
| 2026-05-08 09:45 | 59.41495 | 24.55007 | 2707 ft | 177 kts | 88° |
| 2026-05-08 09:46 | 59.41443 | 24.57419 | 2527 ft | 177 kts | 87° |
| 2026-05-08 09:46 | 59.41416 | 24.59818 | 2288 ft | 176 kts | 86° |
| 2026-05-08 09:46 | 59.41402 | 24.62160 | 2034 ft | 164 kts | 85° |
| 2026-05-08 09:46 | 59.41392 | 24.64282 | 1808 ft | 154 kts | 85° |
| 2026-05-08 09:47 | 59.41386 | 24.66393 | 1618 ft | 152 kts | 85° |
| 2026-05-08 09:47 | 59.41377 | 24.68357 | 1442 ft | 137 kts | 85° |
| 2026-05-08 09:47 | 59.41370 | 24.70164 | 1242 ft | 129 kts | 85° |
| 2026-05-08 09:47 | 59.41363 | 24.71934 | 1076 ft | 128 kts | 85° |
| 2026-05-08 09:48 | 59.41357 | 24.73663 | 918 ft | 129 kts | 86° |
| 2026-05-08 09:48 | 59.41351 | 24.75435 | 732 ft | 128 kts | 86° |
| 2026-05-08 09:48 | 59.41345 | 24.77181 | 546 ft | 128 kts | 85° |
| 2026-05-08 09:48 | 59.41338 | 24.78942 | 384 ft | 129 kts | 86° |
| 2026-05-08 09:49 | 59.41330 | 24.80695 | 209 ft | 130 kts | 86° |
| 2026-05-08 09:49 | 59.41328 | 24.82400 | 140 ft | 114 kts | 90° |
| 2026-05-08 09:49 | 59.41325 | 24.83636 | 139 ft | 65 kts | 90° |
| 2026-05-08 09:49 | 59.41325 | 24.84283 | 139 ft | 40 kts | 91° |
| 2026-05-08 09:50 | 59.41324 | 24.84762 | 139 ft | 24 kts | 90° |
| 2026-05-08 09:50 | 59.41333 | 24.84954 | 139 ft | 11 kts | 67° |
| 2026-05-08 09:50 | 59.41397 | 24.85012 | 139 ft | 11 kts | 358° |
| 2026-05-08 09:50 | 59.41475 | 24.84983 | 139 ft | 11 kts | 323° |
| 2026-05-08 09:51 | 59.41499 | 24.84830 | 139 ft | 13 kts | 271° |
| 2026-05-08 09:51 | 59.41499 | 24.84619 | 139 ft | 17 kts | 270° |
| 2026-05-08 09:51 | 59.41498 | 24.84351 | 139 ft | 21 kts | 271° |
| 2026-05-08 09:51 | 59.41500 | 24.84029 | 139 ft | 26 kts | 270° |
| 2026-05-08 09:52 | 59.41500 | 24.83634 | 139 ft | 31 kts | 271° |
| 2026-05-08 09:52 | 59.41501 | 24.83188 | 139 ft | 33 kts | 270° |
| 2026-05-08 09:52 | 59.41502 | 24.82742 | 139 ft | 31 kts | 270° |
| 2026-05-08 09:52 | 59.41503 | 24.82331 | 139 ft | 29 kts | 271° |
| 2026-05-08 09:53 | 59.41503 | 24.81936 | 139 ft | 28 kts | 270° |
| 2026-05-08 09:53 | 59.41504 | 24.81564 | 139 ft | 26 kts | 270° |
| 2026-05-08 09:53 | 59.41504 | 24.81178 | 140 ft | 29 kts | 271° |
| 2026-05-08 09:53 | 59.41505 | 24.80800 | 139 ft | 23 kts | 270° |
| 2026-05-08 09:54 | 59.41510 | 24.80586 | 140 ft | 12 kts | 291° |
| 2026-05-08 09:54 | 59.41584 | 24.80523 | 139 ft | 13 kts | 0° |
| 2026-05-08 09:54 | 59.41676 | 24.80516 | 139 ft | 13 kts | 343° |
| 2026-05-08 09:54 | 59.41736 | 24.80391 | 139 ft | 13 kts | 284° |
| 2026-05-08 09:55 | 59.41746 | 24.80202 | 139 ft | 14 kts | 270° |
| 2026-05-08 09:55 | 59.41746 | 24.80098 | 139 ft | 3 kts | 270° |
| 2026-05-08 09:55 | 59.41734 | 24.80067 | 140 ft | 3 kts | 195° |
| 2026-05-08 09:55 | 59.41700 | 24.80063 | 140 ft | 3 kts | 181° |
| 2026-05-08 09:56 | 59.41693 | 24.80063 | 140 ft | 0 kts | 181° |
| 2026-05-08 09:56 | 59.41696 | 24.80063 | 140 ft | 1 kts | 181° |
| 2026-05-08 09:56 | 59.41695 | 24.80063 | 140 ft | 0 kts | 181° |